createdAt,value
2018-11-06T00:01:44.818Z,65.97
2018-11-06T00:04:14.317Z,63.03
2018-11-06T00:06:43.829Z,66.97
2018-11-06T00:09:13.323Z,64.10
2018-11-06T00:11:42.686Z,63.97
2018-11-06T00:14:12.140Z,63.87
2018-11-06T00:16:42.835Z,71.10
2018-11-06T00:19:12.370Z,64.47
2018-11-06T00:21:41.886Z,66.13
2018-11-06T00:24:11.652Z,68.53
2018-11-06T00:26:41.105Z,64.47
2018-11-06T00:29:10.498Z,61.03
2018-11-06T00:31:39.929Z,61.50
2018-11-06T00:34:09.630Z,65.73
2018-11-06T00:36:40.008Z,63.87
2018-11-06T00:39:10.029Z,65.80
2018-11-06T00:41:39.976Z,61.53
2018-11-06T00:44:09.575Z,59.17
2018-11-06T00:46:39.016Z,63.03
2018-11-06T00:49:08.500Z,62.83
2018-11-06T00:51:38.106Z,59.17
2018-11-06T00:54:08.394Z,60.23
2018-11-06T00:56:37.867Z,62.20
2018-11-06T00:59:07.424Z,64.90
2018-11-06T01:01:36.837Z,61.70
2018-11-06T01:04:10.049Z,59.43
2018-11-06T01:06:39.526Z,62.23
2018-11-06T01:09:12.521Z,59.13
2018-11-06T01:11:43.088Z,63.47
2018-11-06T01:14:12.605Z,58.50
2018-11-06T01:18:11.358Z,62.57
2018-11-06T01:20:41.405Z,57.50
2018-11-06T01:23:10.942Z,59.00
2018-11-06T01:25:40.557Z,61.70
2018-11-06T01:28:09.978Z,62.13
2018-11-06T01:30:39.481Z,60.63
2018-11-06T01:33:09.063Z,56.80
2018-11-06T01:35:38.387Z,60.30
2018-11-06T01:38:07.744Z,56.60
2018-11-06T01:40:37.378Z,60.60
2018-11-06T01:43:06.813Z,59.77
2018-11-06T01:45:36.181Z,63.60
2018-11-06T01:48:05.807Z,55.77
2018-11-06T01:50:35.204Z,57.03
2018-11-06T01:53:04.775Z,57.27
2018-11-06T01:55:34.218Z,58.33
2018-11-06T01:58:03.576Z,58.43
2018-11-06T02:00:32.929Z,57.58
2018-11-06T02:03:02.426Z,57.83
2018-11-06T02:05:31.743Z,60.65
2018-11-06T02:08:01.096Z,58.13
2018-11-06T02:10:30.534Z,57.60
2018-11-06T02:12:59.987Z,58.48
2018-11-06T02:15:35.895Z,58.47
2018-11-06T02:18:05.820Z,55.73
2018-11-06T02:20:35.273Z,59.40
2018-11-06T02:23:05.951Z,54.77
2018-11-06T02:25:35.314Z,56.30
2018-11-06T02:28:04.681Z,56.58
2018-11-06T02:30:34.209Z,53.20
2018-11-06T02:33:03.591Z,56.97
2018-11-06T02:35:33.013Z,56.13
2018-11-06T02:38:02.639Z,59.00
2018-11-06T02:40:32.018Z,59.13
2018-11-06T02:43:01.401Z,55.83
2018-11-06T02:45:30.986Z,56.10
2018-11-06T02:48:00.363Z,55.00
2018-11-06T02:50:29.791Z,54.93
2018-11-06T02:52:59.301Z,55.07
2018-11-06T02:55:28.746Z,58.60
2018-11-06T02:57:58.152Z,56.73
2018-11-06T03:00:27.835Z,57.03
2018-11-06T03:02:57.328Z,51.07
2018-11-06T03:05:26.764Z,54.40
2018-11-06T03:07:56.182Z,56.77
2018-11-06T03:10:25.586Z,54.50
2018-11-06T03:12:54.878Z,52.70
2018-11-06T03:15:24.456Z,54.45
2018-11-06T03:17:53.867Z,53.73
2018-11-06T03:20:23.308Z,56.27
2018-11-06T03:22:52.746Z,54.25
2018-11-06T03:25:22.207Z,53.63
2018-11-06T03:27:51.590Z,55.43
2018-11-06T03:30:21.161Z,56.20
2018-11-06T03:32:50.563Z,54.10
2018-11-06T03:35:19.918Z,54.05
2018-11-06T03:37:49.295Z,51.75
2018-11-06T03:40:18.671Z,53.28
2018-11-06T03:42:48.095Z,54.80
2018-11-06T03:45:18.985Z,51.13
2018-11-06T03:47:48.372Z,53.07
2018-11-06T03:51:47.213Z,54.30
2018-11-06T03:54:16.745Z,54.30
2018-11-06T03:56:46.121Z,54.63
2018-11-06T03:59:15.518Z,52.13
2018-11-06T04:01:44.800Z,51.77
2018-11-06T04:04:14.241Z,55.73
2018-11-06T04:06:43.937Z,50.77
2018-11-06T04:09:13.875Z,53.83
2018-11-06T04:11:43.312Z,57.17
2018-11-06T04:14:12.761Z,54.30
2018-11-06T04:16:42.183Z,53.73
2018-11-06T04:19:11.731Z,52.20
2018-11-06T04:21:42.036Z,53.02
2018-11-06T04:24:13.700Z,51.18
2018-11-06T04:26:43.984Z,52.15
2018-11-06T04:29:13.433Z,50.83
2018-11-06T04:31:42.919Z,48.13
2018-11-06T04:34:12.526Z,50.93
2018-11-06T04:36:41.951Z,51.97
2018-11-06T04:39:11.969Z,54.23
2018-11-06T04:41:41.419Z,53.08
2018-11-06T04:44:10.989Z,51.60
2018-11-06T04:46:40.564Z,51.90
2018-11-06T04:49:10.579Z,55.00
2018-11-06T04:51:41.122Z,53.20
2018-11-06T04:54:10.533Z,56.33
2018-11-06T04:56:40.776Z,54.50
2018-11-06T04:59:10.182Z,52.97
2018-11-06T05:01:39.691Z,55.83
2018-11-06T05:04:09.897Z,55.60
2018-11-06T05:06:39.314Z,55.00
2018-11-06T05:09:09.644Z,55.30
2018-11-06T05:11:39.327Z,55.60
2018-11-06T05:14:09.462Z,56.67
2018-11-06T05:16:38.959Z,57.62
2018-11-06T05:19:08.404Z,54.80
2018-11-06T05:21:37.851Z,54.70
2018-11-06T05:24:07.299Z,52.47
2018-11-06T05:26:36.750Z,49.97
2018-11-06T05:29:06.173Z,48.15
2018-11-06T05:31:35.575Z,46.63
2018-11-06T05:34:06.475Z,45.83
2018-11-06T05:36:35.867Z,48.35
2018-11-06T05:39:09.461Z,46.73
2018-11-06T05:41:38.924Z,47.85
2018-11-06T05:44:08.479Z,49.60
2018-11-06T05:46:38.013Z,51.75
2018-11-06T05:49:07.584Z,49.88
2018-11-06T05:51:37.385Z,47.30
2018-11-06T05:54:12.024Z,44.77
2018-11-06T05:56:41.522Z,43.35
2018-11-06T05:59:10.877Z,46.68
2018-11-06T06:01:40.346Z,46.37
2018-11-06T06:04:09.822Z,46.42
2018-11-06T06:06:44.806Z,47.60
2018-11-06T06:09:14.268Z,43.98
2018-11-06T06:11:43.954Z,47.40
2018-11-06T06:14:13.594Z,47.03
2018-11-06T06:16:44.610Z,46.68
2018-11-06T06:19:14.519Z,46.23
2018-11-06T06:21:45.000Z,43.30
2018-11-06T06:24:14.417Z,42.08
2018-11-06T06:26:43.838Z,43.90
2018-11-06T06:29:13.404Z,42.95
2018-11-06T06:31:44.065Z,41.58
2018-11-06T06:34:13.763Z,40.35
2018-11-06T06:36:43.583Z,39.83
2018-11-06T06:39:13.089Z,40.50
2018-11-06T06:41:42.784Z,38.92
2018-11-06T06:44:12.236Z,43.08
2018-11-06T06:46:41.873Z,40.50
2018-11-06T06:49:11.404Z,41.30
2018-11-06T06:51:40.881Z,40.78
2018-11-06T06:54:10.385Z,39.65
2018-11-06T06:56:39.744Z,38.23
2018-11-06T06:59:09.163Z,37.70
2018-11-06T07:01:38.566Z,38.38
2018-11-06T07:04:08.046Z,36.45
2018-11-06T07:06:37.837Z,36.50
2018-11-06T07:09:09.437Z,40.17
2018-11-06T07:11:39.786Z,39.38
2018-11-06T07:14:11.244Z,39.75
2018-11-06T07:16:42.902Z,37.73
2018-11-06T07:19:14.362Z,35.58
2018-11-06T07:21:45.800Z,36.95
2018-11-06T07:24:17.666Z,35.48
2018-11-06T07:26:49.417Z,35.30
2018-11-06T07:29:21.302Z,37.55
2018-11-06T07:31:53.855Z,37.25
2018-11-06T07:34:24.866Z,36.23
2018-11-06T07:36:56.560Z,37.03
2018-11-06T07:39:27.449Z,36.88
2018-11-06T07:41:59.253Z,38.42
2018-11-06T07:44:31.425Z,34.40
2018-11-06T07:47:03.859Z,36.50
2018-11-06T07:49:35.099Z,34.75
2018-11-06T07:52:07.581Z,37.85
2018-11-06T07:54:38.420Z,36.13
2018-11-06T07:57:10.995Z,32.53
2018-11-06T07:59:43.186Z,29.85
2018-11-06T08:02:15.463Z,29.67
2018-11-06T08:04:46.353Z,33.15
2018-11-06T08:07:17.739Z,33.00
2018-11-06T08:09:49.387Z,33.78
2018-11-06T08:12:22.008Z,33.10
2018-11-06T08:14:54.503Z,33.58
2018-11-06T08:17:26.231Z,33.13
2018-11-06T08:19:57.884Z,33.45
2018-11-06T08:22:29.732Z,33.00
2018-11-06T08:25:01.516Z,32.00
2018-11-06T08:27:33.467Z,33.30
2018-11-06T08:30:05.176Z,32.88
2018-11-06T08:32:37.204Z,33.00
2018-11-06T08:35:10.542Z,32.67
2018-11-06T08:37:42.079Z,29.52
2018-11-06T08:40:14.416Z,30.88
2018-11-06T08:42:46.183Z,31.60
2018-11-06T08:45:18.829Z,30.30
2018-11-06T08:47:50.647Z,32.00
2018-11-06T08:50:21.785Z,31.93
2018-11-06T08:52:51.250Z,32.80
2018-11-06T08:55:20.883Z,31.42
2018-11-06T08:57:54.680Z,32.35
2018-11-06T09:00:24.120Z,30.85
2018-11-06T09:02:53.520Z,34.10
2018-11-06T09:05:22.983Z,29.30
2018-11-06T09:07:52.503Z,30.10
2018-11-06T09:10:21.878Z,27.82
2018-11-06T09:12:51.308Z,28.60
2018-11-06T09:15:20.768Z,28.40
2018-11-06T09:17:50.113Z,28.10
2018-11-06T09:20:19.678Z,26.97
2018-11-06T09:22:49.021Z,25.62
2018-11-06T09:25:19.529Z,25.90
2018-11-06T09:27:50.624Z,26.40
2018-11-06T09:30:20.500Z,24.80
2018-11-06T09:32:49.919Z,28.03
2018-11-06T09:35:19.322Z,25.67
2018-11-06T09:37:49.446Z,27.07
2018-11-06T09:40:19.910Z,27.93
2018-11-06T09:42:49.270Z,26.63
2018-11-06T09:45:19.298Z,28.17
2018-11-06T09:47:48.785Z,28.10
2018-11-06T09:50:19.532Z,30.90
2018-11-06T09:52:49.054Z,28.47
2018-11-06T09:55:19.007Z,27.30
2018-11-06T09:57:48.495Z,29.00
2018-11-06T10:00:20.096Z,27.63
2018-11-06T10:02:49.745Z,27.17
2018-11-06T10:05:19.102Z,28.90
2018-11-06T10:07:52.680Z,27.63
2018-11-06T10:10:22.214Z,29.80
2018-11-06T10:12:51.610Z,27.97
2018-11-06T10:15:21.775Z,30.17
2018-11-06T10:17:51.675Z,31.50
2018-11-06T10:20:21.797Z,29.00
2018-11-06T10:22:51.279Z,28.53
2018-11-06T10:25:20.673Z,28.93
2018-11-06T10:27:50.207Z,26.93
2018-11-06T10:30:20.432Z,25.93
2018-11-06T10:32:49.767Z,27.87
2018-11-06T10:35:19.373Z,27.47
2018-11-06T10:37:49.898Z,28.67
2018-11-06T10:40:21.772Z,27.97
2018-11-06T10:42:51.444Z,29.60
2018-11-06T10:45:21.215Z,30.30
2018-11-06T10:47:50.660Z,28.30
2018-11-06T10:50:20.163Z,27.40
2018-11-06T10:52:49.871Z,28.40
2018-11-06T10:55:19.549Z,31.47
2018-11-06T10:57:48.990Z,27.93
2018-11-06T11:00:24.664Z,29.70
2018-11-06T11:02:59.592Z,30.57
2018-11-06T11:05:30.393Z,29.20
2018-11-06T11:11:05.791Z,29.87
2018-11-06T11:13:35.357Z,30.03
2018-11-06T11:16:06.915Z,30.87
2018-11-06T11:18:36.520Z,30.80
2018-11-06T11:21:06.381Z,29.93
2018-11-06T11:23:36.089Z,30.93
2018-11-06T11:26:05.641Z,31.90
2018-11-06T11:28:35.464Z,31.07
2018-11-06T11:31:05.701Z,32.57
2018-11-06T11:33:35.236Z,32.40
2018-11-06T11:36:04.722Z,33.80
2018-11-06T11:38:34.345Z,33.63
2018-11-06T11:41:04.864Z,33.07
2018-11-06T11:43:34.631Z,32.53
2018-11-06T11:46:04.620Z,34.60
2018-11-06T11:48:34.087Z,33.50
2018-11-06T11:51:03.531Z,34.20
2018-11-06T11:53:33.126Z,33.53
2018-11-06T11:56:02.686Z,37.20
2018-11-06T11:58:32.250Z,35.53
2018-11-06T12:01:01.962Z,34.23
2018-11-06T12:03:31.486Z,33.07
2018-11-06T12:06:00.909Z,34.17
2018-11-06T12:08:31.081Z,35.43
2018-11-06T12:11:03.926Z,36.07
2018-11-06T12:13:33.818Z,32.83
2018-11-06T12:16:03.279Z,35.70
2018-11-06T12:18:32.756Z,35.77
2018-11-06T12:21:02.455Z,34.17
2018-11-06T12:23:31.841Z,36.37
2018-11-06T12:26:02.327Z,34.40
2018-11-06T12:28:31.799Z,33.20
2018-11-06T12:31:01.224Z,35.00
2018-11-06T12:33:30.941Z,34.33
2018-11-06T12:36:01.850Z,30.00
2018-11-06T12:38:31.379Z,33.67
2018-11-06T12:41:00.944Z,48.17
2018-11-06T12:43:30.785Z,37.00
2018-11-06T12:46:00.054Z,31.90
2018-11-06T12:48:29.543Z,32.20
2018-11-06T12:51:01.170Z,38.07
2018-11-06T12:53:30.946Z,38.00
2018-11-06T12:56:00.480Z,38.87
2018-11-06T12:58:30.094Z,36.60
2018-11-06T13:01:00.548Z,35.97
2018-11-06T13:03:30.088Z,37.13
2018-11-06T13:05:59.676Z,37.77
2018-11-06T13:08:29.284Z,39.83
2018-11-06T13:10:58.871Z,41.43
2018-11-06T13:13:28.288Z,41.13
2018-11-06T13:15:57.650Z,37.60
2018-11-06T13:18:28.247Z,37.57
2018-11-06T13:20:57.778Z,34.97
2018-11-06T13:26:17.145Z,35.80
2018-11-06T13:28:46.511Z,36.07
2018-11-06T13:31:15.859Z,38.50
2018-11-06T13:33:45.530Z,38.37
2018-11-06T13:36:14.958Z,37.03
2018-11-06T13:38:44.542Z,35.60
2018-11-06T13:41:14.362Z,38.03
2018-11-06T13:43:47.050Z,36.40
2018-11-06T13:46:16.462Z,36.43
2018-11-06T13:48:45.955Z,32.93
2018-11-06T13:51:15.871Z,33.70
2018-11-06T13:53:45.753Z,36.50
2018-11-06T13:56:15.607Z,34.83
2018-11-06T13:58:45.180Z,35.20
2018-11-06T14:01:14.711Z,38.30
2018-11-06T14:03:44.285Z,36.80
2018-11-06T14:06:19.700Z,39.23
2018-11-06T14:08:49.300Z,35.70
2018-11-06T14:11:18.902Z,36.90
2018-11-06T14:13:49.189Z,35.43
2018-11-06T14:16:20.715Z,38.37
2018-11-06T14:18:50.280Z,35.10
2018-11-06T14:21:19.733Z,35.30
2018-11-06T14:23:49.170Z,36.93
2018-11-06T14:26:18.826Z,37.30
2018-11-06T14:28:48.242Z,38.77
2018-11-06T14:31:17.837Z,35.30
2018-11-06T14:33:53.088Z,38.00
2018-11-06T14:36:22.855Z,36.70
2018-11-06T14:38:52.391Z,38.87
2018-11-06T14:41:21.885Z,35.20
2018-11-06T14:43:51.266Z,34.10
2018-11-06T14:46:23.730Z,34.47
2018-11-06T14:48:53.383Z,35.73
2018-11-06T14:51:23.748Z,41.70
2018-11-06T14:53:53.311Z,39.47
2018-11-06T14:56:22.878Z,41.23
2018-11-06T14:58:58.880Z,41.20
2018-11-06T15:01:28.764Z,42.30
2018-11-06T15:03:58.255Z,44.77
2018-11-06T15:06:29.027Z,42.83
2018-11-06T15:08:58.437Z,45.43
2018-11-06T15:11:28.040Z,45.03
2018-11-06T15:13:58.189Z,43.30
2018-11-06T15:16:30.990Z,43.07
2018-11-06T15:19:00.909Z,44.57
2018-11-06T15:21:30.466Z,46.30
2018-11-06T15:24:00.084Z,44.47
2018-11-06T15:26:30.053Z,48.40
2018-11-06T15:28:59.505Z,49.17
2018-11-06T15:31:29.132Z,50.70
2018-11-06T15:33:58.774Z,47.90
2018-11-06T15:36:28.519Z,47.40
2018-11-06T15:38:58.148Z,47.80
2018-11-06T15:41:28.721Z,45.30
2018-11-06T15:43:58.218Z,49.50
2018-11-06T15:49:05.788Z,49.10
2018-11-06T15:51:36.315Z,53.83
2018-11-06T15:54:06.352Z,49.97
2018-11-06T15:56:36.084Z,51.97
2018-11-06T15:59:06.149Z,50.20
2018-11-06T16:01:36.325Z,47.97
2018-11-06T16:04:05.819Z,45.80
2018-11-06T16:06:35.740Z,48.20
2018-11-06T16:09:07.099Z,48.83
2018-11-06T16:11:37.788Z,45.90
2018-11-06T16:14:07.342Z,46.50
2018-11-06T16:16:37.013Z,44.00
2018-11-06T16:19:07.493Z,46.47
2018-11-06T16:21:37.076Z,49.40
2018-11-06T16:24:06.755Z,50.33
2018-11-06T16:26:37.359Z,51.73
2018-11-06T16:29:07.131Z,49.37
2018-11-06T16:31:36.677Z,50.13
2018-11-06T16:34:07.155Z,51.57
2018-11-06T16:36:37.608Z,46.80
2018-11-06T16:39:09.989Z,46.10
2018-11-06T16:41:41.211Z,52.30
2018-11-06T16:44:10.718Z,52.70
2018-11-06T16:46:40.297Z,53.10
2018-11-06T16:49:09.780Z,49.73
2018-11-06T16:51:39.289Z,50.47
2018-11-06T16:54:09.144Z,48.50
2018-11-06T16:56:38.691Z,49.00
2018-11-06T16:59:08.631Z,46.20
2018-11-06T17:01:38.152Z,54.03
2018-11-06T17:04:07.841Z,52.37
2018-11-06T17:06:42.765Z,52.07
2018-11-06T17:09:12.708Z,52.57
2018-11-06T17:11:42.109Z,51.10
2018-11-06T17:14:11.532Z,53.57
2018-11-06T17:16:40.982Z,52.40
2018-11-06T17:19:11.774Z,49.30
2018-11-06T17:21:41.893Z,47.67
2018-11-06T17:24:11.549Z,48.75
2018-11-06T17:26:40.926Z,47.43
2018-11-06T17:29:10.464Z,47.73
2018-11-06T17:31:40.570Z,47.50
2018-11-06T17:34:11.840Z,47.70
2018-11-06T17:36:41.655Z,50.73
2018-11-06T17:39:14.363Z,47.63
2018-11-06T17:41:44.332Z,50.37
2018-11-06T17:44:14.076Z,51.77
2018-11-06T17:46:44.918Z,48.47
2018-11-06T17:49:14.481Z,50.23
2018-11-06T17:51:43.968Z,50.70
2018-11-06T17:54:13.564Z,52.30
2018-11-06T17:56:43.035Z,49.50
2018-11-06T17:59:12.342Z,52.93
2018-11-06T18:01:42.544Z,48.80
2018-11-06T18:04:12.038Z,50.07
2018-11-06T18:06:41.324Z,49.40
2018-11-06T18:09:12.596Z,49.53
2018-11-06T18:11:42.293Z,46.30
2018-11-06T18:14:11.714Z,48.23
2018-11-06T18:16:41.571Z,46.33
2018-11-06T18:19:11.134Z,45.80
2018-11-06T18:21:40.882Z,46.10
2018-11-06T18:24:10.523Z,46.37
2018-11-06T18:26:39.855Z,45.47
2018-11-06T18:29:09.286Z,47.90
2018-11-06T18:31:38.726Z,44.03
2018-11-06T18:34:08.143Z,45.40
2018-11-06T18:36:37.622Z,46.93
2018-11-06T18:39:10.219Z,49.15
2018-11-06T18:41:39.755Z,45.08
2018-11-06T18:44:11.778Z,48.13
2018-11-06T18:46:41.209Z,46.70
2018-11-06T18:49:10.618Z,44.00
2018-11-06T18:51:40.784Z,48.70
2018-11-06T18:54:10.283Z,44.90
2018-11-06T18:56:39.945Z,45.33
2018-11-06T18:59:09.409Z,40.37
2018-11-06T19:01:39.757Z,40.80
2018-11-06T19:04:09.406Z,40.63
2018-11-06T19:06:39.595Z,41.42
2018-11-06T19:09:11.110Z,40.58
2018-11-06T19:11:41.734Z,40.10
2018-11-06T19:14:11.654Z,41.80
2018-11-06T19:16:41.274Z,40.00
2018-11-06T19:19:10.756Z,39.48
2018-11-06T19:21:40.174Z,48.02
2018-11-06T19:24:10.197Z,40.48
2018-11-06T19:26:39.874Z,39.95
2018-11-06T19:29:11.556Z,44.00
2018-11-06T19:31:40.998Z,41.30
2018-11-06T19:34:10.466Z,42.37
2018-11-06T19:36:41.410Z,41.50
2018-11-06T19:39:14.702Z,37.10
2018-11-06T19:41:44.161Z,39.00
2018-11-06T19:44:13.606Z,39.63
2018-11-06T19:46:45.319Z,38.97
2018-11-06T19:49:15.113Z,40.73
2018-11-06T19:51:44.832Z,42.77
2018-11-06T19:54:14.982Z,39.77
2018-11-06T19:56:45.605Z,39.53
2018-11-06T19:59:18.885Z,38.00
2018-11-06T20:04:54.917Z,41.37
2018-11-06T20:07:24.442Z,43.37
2018-11-06T20:09:54.234Z,41.60
2018-11-06T20:12:32.050Z,42.33
2018-11-06T20:15:06.349Z,37.48
2018-11-06T20:17:36.109Z,38.30
2018-11-06T20:20:08.648Z,40.00
2018-11-06T20:22:41.218Z,39.00
2018-11-06T20:25:12.341Z,37.37
2018-11-06T20:27:42.965Z,36.37
2018-11-06T20:30:16.358Z,37.17
2018-11-06T20:32:46.658Z,37.30
2018-11-06T20:35:18.037Z,46.17
2018-11-06T20:37:55.763Z,35.77
2018-11-06T20:40:27.164Z,38.33
2018-11-06T20:42:57.129Z,36.70
2018-11-06T20:45:26.720Z,36.70
2018-11-06T20:47:58.719Z,39.27
2018-11-06T20:50:28.336Z,37.93
2018-11-06T20:52:58.596Z,36.83
2018-11-06T20:55:28.585Z,37.60
2018-11-06T20:57:58.306Z,36.47
2018-11-06T21:00:31.282Z,36.67
2018-11-06T21:03:02.825Z,38.90
2018-11-06T21:05:32.563Z,34.70
2018-11-06T21:08:02.067Z,37.33
2018-11-06T21:10:32.832Z,38.30
2018-11-06T21:13:02.682Z,39.43
2018-11-06T21:15:32.197Z,38.80
2018-11-06T21:18:01.791Z,37.83
2018-11-06T21:20:31.609Z,40.37
2018-11-06T21:23:01.266Z,38.87
2018-11-06T21:25:31.653Z,39.43
2018-11-06T21:28:01.100Z,38.10
2018-11-06T21:30:30.566Z,38.73
2018-11-06T21:33:00.479Z,39.13
2018-11-06T21:35:30.042Z,40.93
2018-11-06T21:37:59.574Z,38.67
2018-11-06T21:41:33.915Z,37.90
2018-11-06T21:44:03.518Z,37.00
2018-11-06T21:46:33.149Z,39.87
2018-11-06T21:49:03.404Z,39.83
2018-11-06T21:51:32.765Z,41.18
2018-11-06T21:54:02.184Z,43.40
2018-11-06T21:56:31.570Z,41.97
2018-11-06T21:59:01.190Z,38.43
2018-11-06T22:01:30.752Z,40.25
2018-11-06T22:04:00.196Z,40.40
2018-11-06T22:06:29.802Z,39.65
2018-11-06T22:08:59.302Z,42.13
2018-11-06T22:11:29.212Z,42.00
2018-11-06T22:13:58.699Z,40.70
2018-11-06T22:16:28.110Z,42.50
2018-11-06T22:18:57.771Z,45.97
2018-11-06T22:21:27.223Z,40.25
2018-11-06T22:23:58.149Z,43.70
2018-11-06T22:26:27.784Z,40.07
2018-11-06T22:28:57.200Z,39.50
2018-11-06T22:31:27.625Z,40.53
2018-11-06T22:33:56.958Z,39.93
2018-11-06T22:36:26.659Z,40.10
2018-11-06T22:38:56.075Z,40.40
2018-11-06T22:41:25.523Z,40.13
2018-11-06T22:43:55.256Z,39.07
2018-11-06T22:46:26.279Z,39.83
2018-11-06T22:48:55.671Z,40.00
2018-11-06T22:51:25.177Z,39.83
2018-11-06T22:53:55.267Z,44.50
2018-11-06T22:56:24.768Z,40.90
2018-11-06T22:58:54.239Z,39.53
2018-11-06T23:01:24.621Z,37.70
2018-11-06T23:03:54.882Z,38.67
2018-11-06T23:06:24.697Z,41.83
2018-11-06T23:08:54.008Z,39.20
2018-11-06T23:11:23.324Z,40.83
2018-11-06T23:13:52.719Z,38.47
2018-11-06T23:16:22.088Z,40.50
2018-11-06T23:18:51.513Z,39.65
2018-11-06T23:21:20.922Z,41.97
2018-11-06T23:23:50.373Z,39.63
2018-11-06T23:26:19.780Z,38.87
2018-11-06T23:28:49.405Z,41.50
2018-11-06T23:31:18.850Z,40.40
2018-11-06T23:33:48.232Z,37.50
2018-11-06T23:36:18.008Z,43.00
2018-11-06T23:38:47.362Z,40.20
2018-11-06T23:41:16.761Z,44.27
2018-11-06T23:43:46.208Z,43.10
2018-11-06T23:46:15.667Z,41.07
2018-11-06T23:48:45.086Z,43.23
2018-11-06T23:51:14.718Z,42.00
2018-11-06T23:53:44.226Z,42.15
2018-11-06T23:56:13.779Z,40.30
2018-11-06T23:58:43.171Z,43.38
